createdAt,value
2017-12-20T00:02:24.963Z,1.50
2017-12-20T00:07:28.252Z,1.60
2017-12-20T00:12:31.293Z,1.60
2017-12-20T00:17:34.841Z,1.60
2017-12-20T00:22:37.692Z,1.60
2017-12-20T00:27:40.505Z,1.50
2017-12-20T00:32:43.977Z,1.60
2017-12-20T00:37:46.824Z,1.60
2017-12-20T00:42:50.183Z,1.50
2017-12-20T00:47:54.479Z,1.60
2017-12-20T00:52:57.450Z,1.50
2017-12-20T00:58:00.321Z,1.60
2017-12-20T01:03:03.083Z,1.60
2017-12-20T01:08:06.015Z,1.60
2017-12-20T01:13:08.901Z,1.50
2017-12-20T01:18:11.706Z,1.50
2017-12-20T01:23:14.902Z,1.50
2017-12-20T01:28:19.020Z,1.50
2017-12-20T01:33:21.879Z,1.50
2017-12-20T01:38:24.632Z,1.50
2017-12-20T01:43:27.520Z,1.50
2017-12-20T01:48:30.553Z,1.50
2017-12-20T01:53:35.131Z,1.50
2017-12-20T01:58:38.221Z,1.50
2017-12-20T02:08:50.118Z,1.50
2017-12-20T02:13:53.901Z,1.50
2017-12-20T02:18:56.608Z,1.50
2017-12-20T02:24:00.082Z,1.50
2017-12-20T02:29:02.996Z,1.50
2017-12-20T02:34:06.469Z,1.50
2017-12-20T02:39:09.840Z,1.50
2017-12-20T02:44:14.069Z,1.50
2017-12-20T02:49:16.835Z,1.50
2017-12-20T02:54:19.637Z,1.50
2017-12-20T02:59:22.963Z,1.50
2017-12-20T03:04:25.676Z,1.50
2017-12-20T03:09:28.469Z,1.50
2017-12-20T03:14:31.653Z,1.50
2017-12-20T03:19:34.521Z,1.50
2017-12-20T03:24:37.700Z,1.50
2017-12-20T03:29:40.910Z,1.50
2017-12-20T03:34:45.257Z,1.50
2017-12-20T03:39:48.291Z,1.50
2017-12-20T03:44:51.209Z,1.50
2017-12-20T03:49:54.781Z,1.50
2017-12-20T03:54:57.599Z,1.50
2017-12-20T04:00:00.880Z,1.50
2017-12-20T04:05:04.600Z,1.50
2017-12-20T04:10:07.509Z,1.50
2017-12-20T04:15:12.696Z,1.50
2017-12-20T04:20:15.600Z,1.50
2017-12-20T04:25:18.985Z,1.50
2017-12-20T04:30:21.772Z,1.50
2017-12-20T04:35:24.785Z,1.50
2017-12-20T04:40:27.645Z,1.50
2017-12-20T04:45:30.945Z,1.50
2017-12-20T04:50:33.984Z,1.50
2017-12-20T04:55:36.937Z,1.50
2017-12-20T05:00:39.816Z,1.50
2017-12-20T05:05:42.761Z,1.50
2017-12-20T05:10:45.655Z,1.50
2017-12-20T05:15:49.378Z,1.50
2017-12-20T05:20:52.719Z,1.50
2017-12-20T05:25:56.039Z,1.50
2017-12-20T05:30:59.358Z,1.50
2017-12-20T05:36:02.655Z,1.50
2017-12-20T05:41:05.193Z,1.50
2017-12-20T05:46:07.731Z,1.50
2017-12-20T05:51:10.266Z,1.50
2017-12-20T05:56:13.574Z,1.50
2017-12-20T06:01:16.129Z,1.50
2017-12-20T06:06:19.475Z,1.50
2017-12-20T06:11:22.028Z,1.50
2017-12-20T06:16:24.570Z,1.50
2017-12-20T06:21:27.117Z,1.50
2017-12-20T06:26:29.663Z,1.50
2017-12-20T06:31:32.216Z,1.60
2017-12-20T06:36:34.771Z,1.50
2017-12-20T06:41:37.306Z,1.60
2017-12-20T06:46:39.859Z,1.50
2017-12-20T06:51:42.394Z,1.50
2017-12-20T06:56:45.702Z,1.50
2017-12-20T07:01:48.242Z,1.50
2017-12-20T07:06:50.788Z,1.50
2017-12-20T07:11:53.326Z,1.50
2017-12-20T07:16:55.863Z,1.50
2017-12-20T07:21:58.419Z,1.50
2017-12-20T07:27:01.143Z,1.50
2017-12-20T07:32:04.471Z,1.50
2017-12-20T07:37:07.015Z,1.50
2017-12-20T07:42:09.579Z,1.50
2017-12-20T07:47:12.118Z,1.50
2017-12-20T07:52:14.671Z,1.60
2017-12-20T07:57:17.215Z,1.50
2017-12-20T08:02:19.754Z,1.60
2017-12-20T08:07:22.314Z,1.60
2017-12-20T08:12:24.852Z,1.60
2017-12-20T08:17:27.411Z,1.60
2017-12-20T08:22:29.954Z,1.60
2017-12-20T08:27:32.503Z,1.60
2017-12-20T08:32:35.827Z,1.70
2017-12-20T08:37:38.366Z,1.70
2017-12-20T08:42:40.928Z,1.70
2017-12-20T08:47:43.503Z,1.70
2017-12-20T08:52:46.048Z,1.70
2017-12-20T08:57:48.607Z,1.70
2017-12-20T09:02:51.154Z,1.80
2017-12-20T09:07:53.693Z,1.80
2017-12-20T09:12:56.238Z,1.80
2017-12-20T09:17:58.787Z,1.80
2017-12-20T09:23:01.326Z,1.80
2017-12-20T09:28:03.870Z,1.90
2017-12-20T09:33:06.422Z,1.90
2017-12-20T09:38:08.967Z,1.90
2017-12-20T09:43:11.523Z,1.90
2017-12-20T09:48:14.826Z,2.00
2017-12-20T09:53:17.387Z,2.00
2017-12-20T09:58:19.931Z,2.00
2017-12-20T10:03:22.458Z,2.10
2017-12-20T10:08:25.012Z,2.10
2017-12-20T10:13:28.329Z,2.20
2017-12-20T10:18:31.644Z,2.30
2017-12-20T10:23:34.947Z,2.30
2017-12-20T10:28:38.271Z,2.40
2017-12-20T10:33:40.811Z,2.30
2017-12-20T10:38:43.371Z,2.40
2017-12-20T10:43:46.685Z,2.50
2017-12-20T10:48:50.002Z,2.50
2017-12-20T10:53:52.561Z,2.50
2017-12-20T10:58:55.118Z,2.50
2017-12-20T11:03:57.698Z,2.60
2017-12-20T11:09:00.255Z,2.60
2017-12-20T11:14:02.795Z,2.60
2017-12-20T11:19:05.362Z,2.70
2017-12-20T11:24:07.910Z,2.70
2017-12-20T11:29:10.460Z,2.70
2017-12-20T11:34:13.011Z,2.80
2017-12-20T11:39:15.577Z,2.80
2017-12-20T11:44:18.127Z,2.90
2017-12-20T11:49:20.681Z,2.90
2017-12-20T11:54:23.990Z,3.00
2017-12-20T11:59:26.576Z,3.00
2017-12-20T12:04:29.115Z,3.10
2017-12-20T12:09:31.662Z,3.10
2017-12-20T12:14:34.203Z,3.10
2017-12-20T12:19:36.754Z,3.10
2017-12-20T12:24:39.383Z,3.20
2017-12-20T12:29:41.914Z,3.20
2017-12-20T12:34:44.477Z,3.20
2017-12-20T12:39:47.051Z,3.30
2017-12-20T12:44:49.594Z,3.30
2017-12-20T12:49:52.147Z,3.30
2017-12-20T12:54:54.688Z,3.30
2017-12-20T12:59:57.226Z,3.40
2017-12-20T13:04:59.780Z,3.40
2017-12-20T13:10:03.106Z,3.40
2017-12-20T13:15:05.674Z,3.40
2017-12-20T13:20:08.982Z,3.40
2017-12-20T13:25:11.534Z,3.40
2017-12-20T13:30:14.097Z,3.40
2017-12-20T13:35:16.655Z,3.40
2017-12-20T13:40:19.207Z,3.40
2017-12-20T13:45:21.762Z,3.40
2017-12-20T13:50:24.331Z,3.40
2017-12-20T13:55:26.898Z,3.40
2017-12-20T14:00:29.431Z,3.40
2017-12-20T14:05:31.978Z,3.40
2017-12-20T14:10:34.566Z,3.40
2017-12-20T14:15:37.120Z,3.40
2017-12-20T14:20:39.672Z,3.40
2017-12-20T14:25:42.215Z,3.30
2017-12-20T14:30:44.762Z,3.30
2017-12-20T14:40:59.170Z,3.40
2017-12-20T14:46:03.355Z,3.30
2017-12-20T14:51:06.760Z,3.30
2017-12-20T14:56:11.287Z,3.30
2017-12-20T15:01:19.592Z,3.30
2017-12-20T15:06:23.769Z,3.30
2017-12-20T15:11:27.060Z,3.30
2017-12-20T15:16:30.339Z,3.30
2017-12-20T15:21:35.333Z,3.30
2017-12-20T15:26:38.426Z,3.30
2017-12-20T15:31:41.188Z,3.30
2017-12-20T15:36:49.076Z,3.20
2017-12-20T15:47:35.810Z,3.20
2017-12-20T15:52:50.391Z,3.20
2017-12-20T15:57:55.033Z,3.20
2017-12-20T16:03:04.988Z,3.10
2017-12-20T16:08:10.055Z,3.10
2017-12-20T16:13:21.937Z,3.10
2017-12-20T16:18:27.939Z,3.10
2017-12-20T16:23:33.719Z,3.10
2017-12-20T16:28:37.800Z,3.10
2017-12-20T16:33:41.582Z,3.10
2017-12-20T16:38:47.701Z,3.00
2017-12-20T16:43:50.306Z,3.00
2017-12-20T16:48:52.846Z,3.00
2017-12-20T16:53:55.401Z,3.00
2017-12-20T16:58:57.981Z,3.00
2017-12-20T17:04:00.531Z,3.00
2017-12-20T17:09:03.095Z,2.90
2017-12-20T17:14:05.667Z,2.90
2017-12-20T17:19:08.190Z,2.90
2017-12-20T17:24:10.734Z,2.90
2017-12-20T17:29:13.301Z,2.90
2017-12-20T17:34:16.626Z,2.80
2017-12-20T17:39:19.179Z,2.80
2017-12-20T17:44:22.499Z,2.80
2017-12-20T17:49:25.046Z,2.80
2017-12-20T17:54:27.605Z,2.80
2017-12-20T17:59:30.162Z,2.80
2017-12-20T18:04:32.714Z,2.80
2017-12-20T18:09:35.281Z,2.80
2017-12-20T18:14:37.836Z,2.80
2017-12-20T18:19:40.388Z,2.70
2017-12-20T18:24:43.752Z,2.70
2017-12-20T18:29:46.294Z,2.70
2017-12-20T18:34:49.620Z,2.70
2017-12-20T18:39:52.931Z,2.70
2017-12-20T18:44:56.258Z,2.70
2017-12-20T18:49:59.587Z,2.60
2017-12-20T18:55:02.127Z,2.60
2017-12-20T19:00:04.663Z,2.60
2017-12-20T19:05:07.206Z,2.60
2017-12-20T19:10:13.027Z,2.60
2017-12-20T19:15:16.354Z,2.60
2017-12-20T19:20:18.907Z,2.60
2017-12-20T19:25:21.471Z,2.60
2017-12-20T19:30:24.031Z,2.50
2017-12-20T19:35:26.572Z,2.50
2017-12-20T19:40:29.123Z,2.50
2017-12-20T19:45:31.674Z,2.50
2017-12-20T19:50:34.231Z,2.50
2017-12-20T19:55:37.546Z,2.50
2017-12-20T20:00:40.086Z,2.50
2017-12-20T20:05:42.656Z,2.40
2017-12-20T20:10:45.956Z,2.40
2017-12-20T20:15:48.515Z,2.40
2017-12-20T20:20:51.068Z,2.40
2017-12-20T20:25:54.390Z,2.40
2017-12-20T20:30:57.727Z,2.40
2017-12-20T20:36:00.266Z,2.40
2017-12-20T20:41:02.831Z,2.40
2017-12-20T20:46:05.421Z,2.40
2017-12-20T20:51:07.986Z,2.40
2017-12-20T20:56:10.536Z,2.40
2017-12-20T21:01:13.119Z,2.40
2017-12-20T21:06:15.714Z,2.40
2017-12-20T21:11:18.211Z,2.40
2017-12-20T21:16:20.759Z,2.40
2017-12-20T21:21:23.305Z,2.40
2017-12-20T21:26:25.855Z,2.40
2017-12-20T21:31:28.407Z,2.40
2017-12-20T21:36:30.959Z,2.40
2017-12-20T21:41:33.506Z,2.40
2017-12-20T21:46:36.047Z,2.40
2017-12-20T21:51:38.599Z,2.40
2017-12-20T21:56:41.183Z,2.30
2017-12-20T22:01:43.740Z,2.30
2017-12-20T22:06:46.298Z,2.30
2017-12-20T22:11:48.846Z,2.30
2017-12-20T22:16:51.395Z,2.30
2017-12-20T22:21:53.938Z,2.30
2017-12-20T22:26:56.478Z,2.30
2017-12-20T22:31:59.791Z,2.30
2017-12-20T22:37:02.330Z,2.30
2017-12-20T22:42:05.643Z,2.30
2017-12-20T22:47:08.194Z,2.30
2017-12-20T22:52:11.510Z,2.30
2017-12-20T22:57:14.831Z,2.30
2017-12-20T23:02:18.130Z,2.20
2017-12-20T23:07:20.690Z,2.20
2017-12-20T23:12:23.282Z,2.20
2017-12-20T23:17:25.842Z,2.20
2017-12-20T23:22:29.154Z,2.20
2017-12-20T23:27:32.475Z,2.20
2017-12-20T23:32:35.771Z,2.20
2017-12-20T23:37:38.358Z,2.20
2017-12-20T23:42:40.902Z,2.20
2017-12-20T23:47:44.202Z,2.20
2017-12-20T23:52:46.741Z,2.20
2017-12-20T23:57:49.279Z,2.20
